sensor_id;sensor_type;location;lat;lon;timestamp;P1;durP1;ratioP1;P2;durP2;ratioP2
8958;SDS011;4514;49.476;8.484;2022-11-20T00:01:17;14.23;;;12.80;;
8958;SDS011;4514;49.476;8.484;2022-11-20T00:03:50;15.60;;;14.00;;
8958;SDS011;4514;49.476;8.484;2022-11-20T00:06:17;17.00;;;15.30;;
8958;SDS011;4514;49.476;8.484;2022-11-20T00:08:43;14.77;;;13.17;;
8958;SDS011;4514;49.476;8.484;2022-11-20T00:11:13;17.73;;;16.13;;
8958;SDS011;4514;49.476;8.484;2022-11-20T00:13:47;16.13;;;14.50;;
8958;SDS011;4514;49.476;8.484;2022-11-20T00:16:15;15.07;;;13.57;;
8958;SDS011;4514;49.476;8.484;2022-11-20T00:18:43;16.00;;;14.30;;
8958;SDS011;4514;49.476;8.484;2022-11-20T00:21:14;14.30;;;12.80;;
8958;SDS011;4514;49.476;8.484;2022-11-20T00:23:46;14.97;;;13.47;;
8958;SDS011;4514;49.476;8.484;2022-11-20T00:26:12;14.30;;;12.80;;
8958;SDS011;4514;49.476;8.484;2022-11-20T00:28:39;15.77;;;14.17;;
8958;SDS011;4514;49.476;8.484;2022-11-20T00:31:06;14.73;;;13.33;;
8958;SDS011;4514;49.476;8.484;2022-11-20T00:33:40;15.13;;;13.73;;
8958;SDS011;4514;49.476;8.484;2022-11-20T00:36:08;14.53;;;13.03;;
8958;SDS011;4514;49.476;8.484;2022-11-20T00:38:34;13.87;;;12.47;;
8958;SDS011;4514;49.476;8.484;2022-11-20T00:41:01;13.63;;;12.23;;
8958;SDS011;4514;49.476;8.484;2022-11-20T00:43:28;14.27;;;12.80;;
8958;SDS011;4514;49.476;8.484;2022-11-20T00:46:00;14.20;;;12.80;;
8958;SDS011;4514;49.476;8.484;2022-11-20T00:48:30;12.40;;;11.13;;
8958;SDS011;4514;49.476;8.484;2022-11-20T00:50:55;12.73;;;11.43;;
8958;SDS011;4514;49.476;8.484;2022-11-20T00:53:21;12.90;;;11.60;;
8958;SDS011;4514;49.476;8.484;2022-11-20T00:55:57;15.00;;;13.60;;
8958;SDS011;4514;49.476;8.484;2022-11-20T00:58:29;13.30;;;12.00;;
8958;SDS011;4514;49.476;8.484;2022-11-20T01:03:34;13.10;;;11.00;;
8958;SDS011;4514;49.476;8.484;2022-11-20T01:06:02;12.83;;;11.63;;
8958;SDS011;4514;49.476;8.484;2022-11-20T01:08:31;12.33;;;11.03;;
8958;SDS011;4514;49.476;8.484;2022-11-20T01:11:00;11.40;;;10.30;;
8958;SDS011;4514;49.476;8.484;2022-11-20T01:13:31;11.73;;;10.53;;
8958;SDS011;4514;49.476;8.484;2022-11-20T01:18:34;12.93;;;11.73;;
8958;SDS011;4514;49.476;8.484;2022-11-20T01:21:03;12.70;;;10.87;;
8958;SDS011;4514;49.476;8.484;2022-11-20T01:23:30;13.47;;;12.13;;
8958;SDS011;4514;49.476;8.484;2022-11-20T01:25:57;13.20;;;11.90;;
8958;SDS011;4514;49.476;8.484;2022-11-20T01:28:24;12.50;;;11.30;;
8958;SDS011;4514;49.476;8.484;2022-11-20T01:30:50;12.70;;;11.40;;
8958;SDS011;4514;49.476;8.484;2022-11-20T01:33:17;13.53;;;12.23;;
8958;SDS011;4514;49.476;8.484;2022-11-20T01:35:43;14.37;;;12.97;;
8958;SDS011;4514;49.476;8.484;2022-11-20T01:38:08;12.60;;;11.30;;
8958;SDS011;4514;49.476;8.484;2022-11-20T01:40:33;13.40;;;12.10;;
8958;SDS011;4514;49.476;8.484;2022-11-20T01:43:09;13.60;;;12.20;;
8958;SDS011;4514;49.476;8.484;2022-11-20T01:48:33;14.80;;;13.30;;
8958;SDS011;4514;49.476;8.484;2022-11-20T01:51:02;14.53;;;12.70;;
8958;SDS011;4514;49.476;8.484;2022-11-20T01:53:30;15.33;;;13.83;;
8958;SDS011;4514;49.476;8.484;2022-11-20T01:55:58;13.70;;;12.40;;
8958;SDS011;4514;49.476;8.484;2022-11-20T01:58:32;14.27;;;12.77;;
8958;SDS011;4514;49.476;8.484;2022-11-20T02:00:59;13.90;;;12.50;;
8958;SDS011;4514;49.476;8.484;2022-11-20T02:03:24;13.77;;;12.43;;
8958;SDS011;4514;49.476;8.484;2022-11-20T02:05:51;12.90;;;11.53;;
8958;SDS011;4514;49.476;8.484;2022-11-20T02:08:20;13.60;;;12.20;;
8958;SDS011;4514;49.476;8.484;2022-11-20T02:10:46;13.77;;;12.50;;
8958;SDS011;4514;49.476;8.484;2022-11-20T02:13:12;12.77;;;11.57;;
8958;SDS011;4514;49.476;8.484;2022-11-20T02:15:56;12.07;;;10.87;;
8958;SDS011;4514;49.476;8.484;2022-11-20T02:18:21;12.23;;;11.03;;
8958;SDS011;4514;49.476;8.484;2022-11-20T02:20:49;12.33;;;11.03;;
8958;SDS011;4514;49.476;8.484;2022-11-20T02:25:47;12.70;;;11.30;;
8958;SDS011;4514;49.476;8.484;2022-11-20T02:28:14;14.73;;;11.57;;
8958;SDS011;4514;49.476;8.484;2022-11-20T02:30:40;12.77;;;11.47;;
8958;SDS011;4514;49.476;8.484;2022-11-20T02:33:05;14.60;;;12.57;;
8958;SDS011;4514;49.476;8.484;2022-11-20T02:37:57;14.73;;;13.23;;
8958;SDS011;4514;49.476;8.484;2022-11-20T02:40:25;15.13;;;13.60;;
8958;SDS011;4514;49.476;8.484;2022-11-20T02:42:51;14.40;;;12.97;;
8958;SDS011;4514;49.476;8.484;2022-11-20T02:45:17;14.33;;;12.90;;
8958;SDS011;4514;49.476;8.484;2022-11-20T02:47:45;14.27;;;12.77;;
8958;SDS011;4514;49.476;8.484;2022-11-20T02:50:10;16.00;;;12.67;;
8958;SDS011;4514;49.476;8.484;2022-11-20T02:52:36;14.40;;;12.93;;
8958;SDS011;4514;49.476;8.484;2022-11-20T02:55:04;14.10;;;12.70;;
8958;SDS011;4514;49.476;8.484;2022-11-20T02:57:29;14.40;;;13.00;;
8958;SDS011;4514;49.476;8.484;2022-11-20T02:59:57;15.00;;;13.50;;
8958;SDS011;4514;49.476;8.484;2022-11-20T03:02:25;15.90;;;12.93;;
8958;SDS011;4514;49.476;8.484;2022-11-20T03:04:50;13.67;;;12.37;;
8958;SDS011;4514;49.476;8.484;2022-11-20T03:07:15;13.97;;;12.57;;
8958;SDS011;4514;49.476;8.484;2022-11-20T03:09:41;13.60;;;12.10;;
8958;SDS011;4514;49.476;8.484;2022-11-20T03:12:06;14.43;;;13.03;;
8958;SDS011;4514;49.476;8.484;2022-11-20T03:14:32;14.00;;;12.40;;
8958;SDS011;4514;49.476;8.484;2022-11-20T03:16:59;13.20;;;11.90;;
8958;SDS011;4514;49.476;8.484;2022-11-20T03:19:25;13.87;;;12.37;;
8958;SDS011;4514;49.476;8.484;2022-11-20T03:21:50;13.27;;;11.87;;
8958;SDS011;4514;49.476;8.484;2022-11-20T03:24:15;13.40;;;12.10;;
8958;SDS011;4514;49.476;8.484;2022-11-20T03:26:41;14.33;;;12.83;;
8958;SDS011;4514;49.476;8.484;2022-11-20T03:29:08;14.23;;;12.73;;
8958;SDS011;4514;49.476;8.484;2022-11-20T03:31:37;13.87;;;12.40;;
8958;SDS011;4514;49.476;8.484;2022-11-20T03:34:09;14.10;;;12.70;;
8958;SDS011;4514;49.476;8.484;2022-11-20T03:36:38;14.23;;;12.80;;
8958;SDS011;4514;49.476;8.484;2022-11-20T03:39:06;14.63;;;12.77;;
8958;SDS011;4514;49.476;8.484;2022-11-20T03:41:35;14.20;;;12.70;;
8958;SDS011;4514;49.476;8.484;2022-11-20T03:44:02;14.53;;;12.57;;
8958;SDS011;4514;49.476;8.484;2022-11-20T03:46:31;13.93;;;12.53;;
8958;SDS011;4514;49.476;8.484;2022-11-20T03:48:56;14.27;;;12.83;;
8958;SDS011;4514;49.476;8.484;2022-11-20T03:51:23;14.23;;;12.73;;
8958;SDS011;4514;49.476;8.484;2022-11-20T03:53:53;13.60;;;12.20;;
8958;SDS011;4514;49.476;8.484;2022-11-20T03:56:25;14.53;;;13.03;;
8958;SDS011;4514;49.476;8.484;2022-11-20T03:58:55;13.97;;;12.67;;
8958;SDS011;4514;49.476;8.484;2022-11-20T04:01:25;12.67;;;11.37;;
8958;SDS011;4514;49.476;8.484;2022-11-20T04:03:52;12.87;;;11.57;;
8958;SDS011;4514;49.476;8.484;2022-11-20T04:06:20;13.53;;;12.13;;
8958;SDS011;4514;49.476;8.484;2022-11-20T04:08:48;14.37;;;12.87;;
8958;SDS011;4514;49.476;8.484;2022-11-20T04:11:17;15.63;;;14.07;;
8958;SDS011;4514;49.476;8.484;2022-11-20T04:13:51;14.87;;;13.10;;
8958;SDS011;4514;49.476;8.484;2022-11-20T04:16:20;12.77;;;11.43;;
8958;SDS011;4514;49.476;8.484;2022-11-20T04:18:56;14.00;;;12.50;;
8958;SDS011;4514;49.476;8.484;2022-11-20T04:21:23;13.37;;;11.83;;
8958;SDS011;4514;49.476;8.484;2022-11-20T04:23:49;13.57;;;12.17;;
8958;SDS011;4514;49.476;8.484;2022-11-20T04:26:15;13.23;;;11.83;;
8958;SDS011;4514;49.476;8.484;2022-11-20T04:28:40;12.73;;;11.47;;
8958;SDS011;4514;49.476;8.484;2022-11-20T04:31:09;11.57;;;10.30;;
8958;SDS011;4514;49.476;8.484;2022-11-20T04:33:38;11.50;;;10.30;;
8958;SDS011;4514;49.476;8.484;2022-11-20T04:36:05;12.00;;;10.80;;
8958;SDS011;4514;49.476;8.484;2022-11-20T04:38:32;12.95;;;11.65;;
8958;SDS011;4514;49.476;8.484;2022-11-20T04:41:01;11.03;;;9.93;;
8958;SDS011;4514;49.476;8.484;2022-11-20T04:43:28;12.50;;;11.30;;
8958;SDS011;4514;49.476;8.484;2022-11-20T04:45:54;11.87;;;10.33;;
8958;SDS011;4514;49.476;8.484;2022-11-20T04:48:20;12.57;;;11.27;;
8958;SDS011;4514;49.476;8.484;2022-11-20T04:50:45;12.80;;;11.50;;
8958;SDS011;4514;49.476;8.484;2022-11-20T04:53:13;12.03;;;10.30;;
8958;SDS011;4514;49.476;8.484;2022-11-20T04:55:38;12.07;;;10.77;;
8958;SDS011;4514;49.476;8.484;2022-11-20T04:58:08;12.73;;;10.83;;
8958;SDS011;4514;49.476;8.484;2022-11-20T05:00:36;12.53;;;11.23;;
8958;SDS011;4514;49.476;8.484;2022-11-20T05:03:03;14.60;;;13.20;;
8958;SDS011;4514;49.476;8.484;2022-11-20T05:05:29;13.13;;;11.73;;
8958;SDS011;4514;49.476;8.484;2022-11-20T05:07:58;13.70;;;11.80;;
8958;SDS011;4514;49.476;8.484;2022-11-20T05:10:27;12.13;;;10.87;;
8958;SDS011;4514;49.476;8.484;2022-11-20T05:12:52;12.77;;;11.47;;
8958;SDS011;4514;49.476;8.484;2022-11-20T05:15:21;13.93;;;11.90;;
8958;SDS011;4514;49.476;8.484;2022-11-20T05:17:50;14.23;;;12.33;;
8958;SDS011;4514;49.476;8.484;2022-11-20T05:20:19;13.93;;;12.50;;
8958;SDS011;4514;49.476;8.484;2022-11-20T05:22:46;13.33;;;11.93;;
8958;SDS011;4514;49.476;8.484;2022-11-20T05:25:12;14.57;;;13.03;;
8958;SDS011;4514;49.476;8.484;2022-11-20T05:27:37;15.33;;;13.83;;
8958;SDS011;4514;49.476;8.484;2022-11-20T05:30:05;13.80;;;12.47;;
8958;SDS011;4514;49.476;8.484;2022-11-20T05:32:31;16.70;;;13.33;;
8958;SDS011;4514;49.476;8.484;2022-11-20T05:34:57;15.57;;;13.37;;
8958;SDS011;4514;49.476;8.484;2022-11-20T05:37:24;13.47;;;12.07;;
8958;SDS011;4514;49.476;8.484;2022-11-20T05:39:50;13.17;;;11.77;;
8958;SDS011;4514;49.476;8.484;2022-11-20T05:42:17;12.57;;;11.27;;
8958;SDS011;4514;49.476;8.484;2022-11-20T05:44:55;14.00;;;12.47;;
8958;SDS011;4514;49.476;8.484;2022-11-20T05:47:20;13.23;;;11.63;;
8958;SDS011;4514;49.476;8.484;2022-11-20T05:49:46;13.23;;;11.80;;
8958;SDS011;4514;49.476;8.484;2022-11-20T05:52:13;14.10;;;12.20;;
8958;SDS011;4514;49.476;8.484;2022-11-20T05:54:39;12.90;;;11.60;;
8958;SDS011;4514;49.476;8.484;2022-11-20T05:57:04;13.73;;;11.63;;
8958;SDS011;4514;49.476;8.484;2022-11-20T05:59:29;12.47;;;11.27;;
8958;SDS011;4514;49.476;8.484;2022-11-20T06:01:57;12.93;;;11.63;;
8958;SDS011;4514;49.476;8.484;2022-11-20T06:04:22;13.47;;;12.10;;
8958;SDS011;4514;49.476;8.484;2022-11-20T06:06:48;13.10;;;11.80;;
8958;SDS011;4514;49.476;8.484;2022-11-20T06:09:16;13.40;;;12.10;;
8958;SDS011;4514;49.476;8.484;2022-11-20T06:11:41;12.80;;;11.50;;
8958;SDS011;4514;49.476;8.484;2022-11-20T06:14:09;12.23;;;10.53;;
8958;SDS011;4514;49.476;8.484;2022-11-20T06:16:36;12.20;;;10.90;;
8958;SDS011;4514;49.476;8.484;2022-11-20T06:19:02;12.33;;;11.03;;
8958;SDS011;4514;49.476;8.484;2022-11-20T06:21:29;12.53;;;10.53;;
8958;SDS011;4514;49.476;8.484;2022-11-20T06:23:55;12.97;;;10.63;;
8958;SDS011;4514;49.476;8.484;2022-11-20T06:26:23;12.40;;;10.80;;
8958;SDS011;4514;49.476;8.484;2022-11-20T06:28:52;11.60;;;10.40;;
8958;SDS011;4514;49.476;8.484;2022-11-20T06:31:19;12.37;;;11.07;;
8958;SDS011;4514;49.476;8.484;2022-11-20T06:33:50;12.30;;;10.90;;
8958;SDS011;4514;49.476;8.484;2022-11-20T06:36:17;12.40;;;11.10;;
8958;SDS011;4514;49.476;8.484;2022-11-20T06:38:44;12.63;;;10.77;;
8958;SDS011;4514;49.476;8.484;2022-11-20T06:41:10;12.17;;;10.13;;
8958;SDS011;4514;49.476;8.484;2022-11-20T06:43:40;11.53;;;10.33;;
8958;SDS011;4514;49.476;8.484;2022-11-20T06:46:05;12.90;;;11.17;;
8958;SDS011;4514;49.476;8.484;2022-11-20T06:48:33;13.18;;;11.90;;
8958;SDS011;4514;49.476;8.484;2022-11-20T06:50:58;13.50;;;11.20;;
8958;SDS011;4514;49.476;8.484;2022-11-20T06:53:28;11.60;;;10.20;;
8958;SDS011;4514;49.476;8.484;2022-11-20T06:55:56;12.33;;;10.50;;
8958;SDS011;4514;49.476;8.484;2022-11-20T06:58:27;11.47;;;10.37;;
8958;SDS011;4514;49.476;8.484;2022-11-20T07:00:54;12.43;;;10.63;;
8958;SDS011;4514;49.476;8.484;2022-11-20T07:03:23;12.27;;;10.97;;
8958;SDS011;4514;49.476;8.484;2022-11-20T07:05:48;12.70;;;11.37;;
8958;SDS011;4514;49.476;8.484;2022-11-20T07:08:13;14.70;;;13.30;;
8958;SDS011;4514;49.476;8.484;2022-11-20T07:10:39;13.50;;;12.10;;
8958;SDS011;4514;49.476;8.484;2022-11-20T07:13:07;11.80;;;10.57;;
8958;SDS011;4514;49.476;8.484;2022-11-20T07:15:32;12.40;;;11.10;;
8958;SDS011;4514;49.476;8.484;2022-11-20T07:18:01;12.77;;;11.40;;
8958;SDS011;4514;49.476;8.484;2022-11-20T07:20:26;13.23;;;11.27;;
8958;SDS011;4514;49.476;8.484;2022-11-20T07:22:54;13.13;;;11.50;;
8958;SDS011;4514;49.476;8.484;2022-11-20T07:25:21;12.00;;;10.73;;
8958;SDS011;4514;49.476;8.484;2022-11-20T07:27:47;14.63;;;13.23;;
8958;SDS011;4514;49.476;8.484;2022-11-20T07:30:13;15.07;;;13.57;;
8958;SDS011;4514;49.476;8.484;2022-11-20T07:32:39;13.20;;;11.80;;
8958;SDS011;4514;49.476;8.484;2022-11-20T07:35:06;12.63;;;11.33;;
8958;SDS011;4514;49.476;8.484;2022-11-20T07:37:35;12.17;;;10.87;;
8958;SDS011;4514;49.476;8.484;2022-11-20T07:40:03;14.15;;;12.70;;
8958;SDS011;4514;49.476;8.484;2022-11-20T07:42:29;15.83;;;14.23;;
8958;SDS011;4514;49.476;8.484;2022-11-20T07:44:54;12.83;;;11.53;;
8958;SDS011;4514;49.476;8.484;2022-11-20T07:47:20;12.47;;;11.23;;
8958;SDS011;4514;49.476;8.484;2022-11-20T07:49:47;12.00;;;10.80;;
8958;SDS011;4514;49.476;8.484;2022-11-20T07:52:15;13.63;;;12.13;;
8958;SDS011;4514;49.476;8.484;2022-11-20T07:54:40;15.50;;;12.10;;
8958;SDS011;4514;49.476;8.484;2022-11-20T07:57:08;17.23;;;12.10;;
8958;SDS011;4514;49.476;8.484;2022-11-20T07:59:33;14.33;;;11.70;;
8958;SDS011;4514;49.476;8.484;2022-11-20T08:02:01;14.03;;;12.03;;
8958;SDS011;4514;49.476;8.484;2022-11-20T08:04:27;13.13;;;11.70;;
8958;SDS011;4514;49.476;8.484;2022-11-20T08:06:52;15.03;;;12.87;;
8958;SDS011;4514;49.476;8.484;2022-11-20T08:09:19;13.67;;;12.20;;
8958;SDS011;4514;49.476;8.484;2022-11-20T08:11:44;14.07;;;11.77;;
8958;SDS011;4514;49.476;8.484;2022-11-20T08:14:28;16.20;;;14.60;;
8958;SDS011;4514;49.476;8.484;2022-11-20T08:16:56;15.93;;;13.43;;
8958;SDS011;4514;49.476;8.484;2022-11-20T08:19:23;13.77;;;12.27;;
8958;SDS011;4514;49.476;8.484;2022-11-20T08:21:49;14.10;;;12.27;;
8958;SDS011;4514;49.476;8.484;2022-11-20T08:24:14;13.57;;;12.10;;
8958;SDS011;4514;49.476;8.484;2022-11-20T08:26:40;14.70;;;12.53;;
8958;SDS011;4514;49.476;8.484;2022-11-20T08:29:06;15.80;;;13.37;;
8958;SDS011;4514;49.476;8.484;2022-11-20T08:31:31;16.40;;;13.23;;
8958;SDS011;4514;49.476;8.484;2022-11-20T08:33:57;15.43;;;13.23;;
8958;SDS011;4514;49.476;8.484;2022-11-20T08:36:23;15.95;;;14.25;;
8958;SDS011;4514;49.476;8.484;2022-11-20T08:38:49;18.13;;;15.70;;
8958;SDS011;4514;49.476;8.484;2022-11-20T08:41:18;16.33;;;13.93;;
8958;SDS011;4514;49.476;8.484;2022-11-20T08:43:57;14.33;;;12.83;;
8958;SDS011;4514;49.476;8.484;2022-11-20T08:46:48;15.43;;;13.23;;
8958;SDS011;4514;49.476;8.484;2022-11-20T08:49:13;12.87;;;11.47;;
8958;SDS011;4514;49.476;8.484;2022-11-20T08:51:39;14.17;;;11.97;;
8958;SDS011;4514;49.476;8.484;2022-11-20T08:54:04;12.20;;;10.83;;
8958;SDS011;4514;49.476;8.484;2022-11-20T08:56:30;12.67;;;11.37;;
8958;SDS011;4514;49.476;8.484;2022-11-20T08:58:56;13.00;;;11.70;;
8958;SDS011;4514;49.476;8.484;2022-11-20T09:01:22;14.70;;;13.20;;
8958;SDS011;4514;49.476;8.484;2022-11-20T09:03:54;13.57;;;12.23;;
8958;SDS011;4514;49.476;8.484;2022-11-20T09:06:21;13.10;;;11.70;;
8958;SDS011;4514;49.476;8.484;2022-11-20T09:08:46;12.87;;;11.57;;
8958;SDS011;4514;49.476;8.484;2022-11-20T09:11:14;12.27;;;10.97;;
8958;SDS011;4514;49.476;8.484;2022-11-20T09:13:39;12.83;;;11.50;;
8958;SDS011;4514;49.476;8.484;2022-11-20T09:16:06;13.33;;;11.93;;
8958;SDS011;4514;49.476;8.484;2022-11-20T09:18:33;13.57;;;12.13;;
8958;SDS011;4514;49.476;8.484;2022-11-20T09:21:02;14.95;;;13.38;;
8958;SDS011;4514;49.476;8.484;2022-11-20T09:23:33;12.47;;;11.17;;
8958;SDS011;4514;49.476;8.484;2022-11-20T09:26:07;14.67;;;12.90;;
8958;SDS011;4514;49.476;8.484;2022-11-20T09:28:38;18.17;;;14.77;;
8958;SDS011;4514;49.476;8.484;2022-11-20T09:31:05;19.47;;;16.73;;
8958;SDS011;4514;49.476;8.484;2022-11-20T09:33:35;22.20;;;18.27;;
8958;SDS011;4514;49.476;8.484;2022-11-20T09:36:04;23.87;;;18.30;;
8958;SDS011;4514;49.476;8.484;2022-11-20T09:38:29;25.37;;;19.50;;
8958;SDS011;4514;49.476;8.484;2022-11-20T09:41:04;24.27;;;19.33;;
8958;SDS011;4514;49.476;8.484;2022-11-20T09:43:34;25.53;;;19.97;;
8958;SDS011;4514;49.476;8.484;2022-11-20T09:49:03;24.73;;;19.13;;
8958;SDS011;4514;49.476;8.484;2022-11-20T09:51:46;24.07;;;19.27;;
8958;SDS011;4514;49.476;8.484;2022-11-20T09:54:30;27.73;;;20.83;;
8958;SDS011;4514;49.476;8.484;2022-11-20T09:57:02;25.07;;;19.43;;
8958;SDS011;4514;49.476;8.484;2022-11-20T10:02:08;27.00;;;22.98;;
8958;SDS011;4514;49.476;8.484;2022-11-20T10:04:42;24.63;;;20.53;;
8958;SDS011;4514;49.476;8.484;2022-11-20T10:09:40;26.77;;;19.77;;
8958;SDS011;4514;49.476;8.484;2022-11-20T10:12:16;26.03;;;20.37;;
8958;SDS011;4514;49.476;8.484;2022-11-20T10:14:48;25.77;;;19.87;;
8958;SDS011;4514;49.476;8.484;2022-11-20T10:17:38;28.73;;;21.40;;
8958;SDS011;4514;49.476;8.484;2022-11-20T10:28:29;33.43;;;23.07;;
8958;SDS011;4514;49.476;8.484;2022-11-20T10:31:31;30.50;;;23.20;;
8958;SDS011;4514;49.476;8.484;2022-11-20T10:33:59;31.63;;;23.13;;
8958;SDS011;4514;49.476;8.484;2022-11-20T10:36:28;32.93;;;22.80;;
8958;SDS011;4514;49.476;8.484;2022-11-20T10:39:05;33.10;;;22.50;;
8958;SDS011;4514;49.476;8.484;2022-11-20T10:41:34;32.23;;;23.30;;
8958;SDS011;4514;49.476;8.484;2022-11-20T10:47:04;31.33;;;23.43;;
8958;SDS011;4514;49.476;8.484;2022-11-20T10:49:32;33.80;;;24.00;;
8958;SDS011;4514;49.476;8.484;2022-11-20T10:52:09;31.97;;;22.97;;
8958;SDS011;4514;49.476;8.484;2022-11-20T10:57:54;33.30;;;24.57;;
8958;SDS011;4514;49.476;8.484;2022-11-20T11:00:30;30.37;;;22.70;;
8958;SDS011;4514;49.476;8.484;2022-11-20T11:02:58;32.93;;;23.03;;
8958;SDS011;4514;49.476;8.484;2022-11-20T11:08:15;35.63;;;26.90;;
8958;SDS011;4514;49.476;8.484;2022-11-20T11:13:34;32.03;;;23.83;;
8958;SDS011;4514;49.476;8.484;2022-11-20T11:16:00;30.00;;;22.13;;
8958;SDS011;4514;49.476;8.484;2022-11-20T11:18:31;27.77;;;20.97;;
8958;SDS011;4514;49.476;8.484;2022-11-20T11:21:02;29.80;;;21.70;;
8958;SDS011;4514;49.476;8.484;2022-11-20T11:26:05;23.87;;;19.30;;
8958;SDS011;4514;49.476;8.484;2022-11-20T11:28:32;22.08;;;17.67;;
8958;SDS011;4514;49.476;8.484;2022-11-20T11:31:00;21.60;;;17.50;;
8958;SDS011;4514;49.476;8.484;2022-11-20T11:33:29;18.20;;;16.30;;
8958;SDS011;4514;49.476;8.484;2022-11-20T11:35:57;15.88;;;14.27;;
8958;SDS011;4514;49.476;8.484;2022-11-20T11:38:37;15.77;;;14.05;;
8958;SDS011;4514;49.476;8.484;2022-11-20T11:41:05;16.13;;;14.52;;
8958;SDS011;4514;49.476;8.484;2022-11-20T11:43:32;15.57;;;14.00;;
8958;SDS011;4514;49.476;8.484;2022-11-20T11:51:29;13.45;;;12.05;;
8958;SDS011;4514;49.476;8.484;2022-11-20T11:54:00;11.95;;;10.85;;
8958;SDS011;4514;49.476;8.484;2022-11-20T11:56:26;15.60;;;11.10;;
8958;SDS011;4514;49.476;8.484;2022-11-20T11:59:00;15.20;;;9.80;;
8958;SDS011;4514;49.476;8.484;2022-11-20T12:01:38;14.23;;;9.95;;
8958;SDS011;4514;49.476;8.484;2022-11-20T12:07:01;15.27;;;11.05;;
8958;SDS011;4514;49.476;8.484;2022-11-20T12:09:43;11.20;;;10.00;;
8958;SDS011;4514;49.476;8.484;2022-11-20T12:12:15;14.00;;;10.00;;
8958;SDS011;4514;49.476;8.484;2022-11-20T12:14:43;15.70;;;9.95;;
8958;SDS011;4514;49.476;8.484;2022-11-20T12:17:13;19.35;;;10.40;;
8958;SDS011;4514;49.476;8.484;2022-11-20T12:19:39;13.30;;;9.43;;
8958;SDS011;4514;49.476;8.484;2022-11-20T12:27:21;10.35;;;8.77;;
8958;SDS011;4514;49.476;8.484;2022-11-20T12:38:08;9.68;;;7.57;;
8958;SDS011;4514;49.476;8.484;2022-11-20T12:40:44;7.93;;;6.65;;
8958;SDS011;4514;49.476;8.484;2022-11-20T12:43:31;7.00;;;6.30;;
8958;SDS011;4514;49.476;8.484;2022-11-20T12:49:01;6.95;;;5.35;;
8958;SDS011;4514;49.476;8.484;2022-11-20T12:56:57;6.78;;;4.10;;
8958;SDS011;4514;49.476;8.484;2022-11-20T13:07:30;4.75;;;3.05;;
8958;SDS011;4514;49.476;8.484;2022-11-20T13:09:59;5.05;;;3.08;;
8958;SDS011;4514;49.476;8.484;2022-11-20T13:12:33;4.00;;;2.63;;
8958;SDS011;4514;49.476;8.484;2022-11-20T13:15:26;4.75;;;2.80;;
8958;SDS011;4514;49.476;8.484;2022-11-20T13:17:57;5.07;;;2.70;;
8958;SDS011;4514;49.476;8.484;2022-11-20T13:20:24;3.25;;;2.60;;
8958;SDS011;4514;49.476;8.484;2022-11-20T13:22:56;4.95;;;2.28;;
8958;SDS011;4514;49.476;8.484;2022-11-20T13:28:04;6.25;;;3.50;;
8958;SDS011;4514;49.476;8.484;2022-11-20T13:30:53;5.82;;;3.38;;
8958;SDS011;4514;49.476;8.484;2022-11-20T13:33:32;5.15;;;2.30;;
8958;SDS011;4514;49.476;8.484;2022-11-20T13:36:21;4.25;;;2.40;;
8958;SDS011;4514;49.476;8.484;2022-11-20T13:38:50;4.15;;;2.45;;
8958;SDS011;4514;49.476;8.484;2022-11-20T13:46:37;5.60;;;2.78;;
8958;SDS011;4514;49.476;8.484;2022-11-20T13:49:09;3.53;;;2.30;;
8958;SDS011;4514;49.476;8.484;2022-11-20T13:51:49;17.33;;;2.50;;
8958;SDS011;4514;49.476;8.484;2022-11-20T13:54:34;4.22;;;2.47;;
8958;SDS011;4514;49.476;8.484;2022-11-20T14:02:37;3.90;;;2.10;;
8958;SDS011;4514;49.476;8.484;2022-11-20T14:05:03;5.03;;;1.85;;
8958;SDS011;4514;49.476;8.484;2022-11-20T14:07:34;4.93;;;1.80;;
8958;SDS011;4514;49.476;8.484;2022-11-20T14:10:18;3.92;;;2.08;;
8958;SDS011;4514;49.476;8.484;2022-11-20T14:12:44;4.53;;;2.63;;
8958;SDS011;4514;49.476;8.484;2022-11-20T14:15:27;3.55;;;1.58;;
8958;SDS011;4514;49.476;8.484;2022-11-20T14:17:56;3.70;;;1.60;;
8958;SDS011;4514;49.476;8.484;2022-11-20T14:20:31;6.53;;;2.17;;
8958;SDS011;4514;49.476;8.484;2022-11-20T14:22:57;2.60;;;1.33;;
8958;SDS011;4514;49.476;8.484;2022-11-20T14:25:25;2.05;;;1.23;;
8958;SDS011;4514;49.476;8.484;2022-11-20T14:27:59;3.53;;;1.70;;
8958;SDS011;4514;49.476;8.484;2022-11-20T14:30:26;5.28;;;1.48;;
8958;SDS011;4514;49.476;8.484;2022-11-20T14:32:54;4.60;;;1.60;;
8958;SDS011;4514;49.476;8.484;2022-11-20T14:35:24;2.53;;;1.50;;
8958;SDS011;4514;49.476;8.484;2022-11-20T14:37:50;3.25;;;1.52;;
8958;SDS011;4514;49.476;8.484;2022-11-20T14:40:29;3.28;;;1.77;;
8958;SDS011;4514;49.476;8.484;2022-11-20T14:42:57;3.63;;;1.33;;
8958;SDS011;4514;49.476;8.484;2022-11-20T14:45:25;6.00;;;1.63;;
8958;SDS011;4514;49.476;8.484;2022-11-20T14:47:52;4.40;;;1.73;;
8958;SDS011;4514;49.476;8.484;2022-11-20T14:50:22;4.07;;;1.70;;
8958;SDS011;4514;49.476;8.484;2022-11-20T14:52:55;2.60;;;1.53;;
8958;SDS011;4514;49.476;8.484;2022-11-20T14:55:25;3.73;;;1.47;;
8958;SDS011;4514;49.476;8.484;2022-11-20T14:57:54;2.77;;;1.77;;
8958;SDS011;4514;49.476;8.484;2022-11-20T15:00:23;3.23;;;1.50;;
8958;SDS011;4514;49.476;8.484;2022-11-20T15:02:51;4.87;;;2.20;;
8958;SDS011;4514;49.476;8.484;2022-11-20T15:05:21;4.32;;;1.80;;
8958;SDS011;4514;49.476;8.484;2022-11-20T15:07:49;16.57;;;12.60;;
8958;SDS011;4514;49.476;8.484;2022-11-20T15:12:49;6.23;;;1.73;;
8958;SDS011;4514;49.476;8.484;2022-11-20T15:15:17;4.50;;;2.70;;
8958;SDS011;4514;49.476;8.484;2022-11-20T15:17:49;5.57;;;3.03;;
8958;SDS011;4514;49.476;8.484;2022-11-20T15:20:15;2.85;;;2.00;;
8958;SDS011;4514;49.476;8.484;2022-11-20T15:22:41;2.95;;;1.95;;
8958;SDS011;4514;49.476;8.484;2022-11-20T15:25:13;4.20;;;2.27;;
8958;SDS011;4514;49.476;8.484;2022-11-20T15:27:39;3.57;;;1.80;;
8958;SDS011;4514;49.476;8.484;2022-11-20T15:30:11;4.87;;;2.60;;
8958;SDS011;4514;49.476;8.484;2022-11-20T15:32:43;5.67;;;2.93;;
8958;SDS011;4514;49.476;8.484;2022-11-20T15:35:09;3.60;;;2.50;;
8958;SDS011;4514;49.476;8.484;2022-11-20T15:37:35;4.23;;;2.43;;
8958;SDS011;4514;49.476;8.484;2022-11-20T15:40:02;4.23;;;2.30;;
8958;SDS011;4514;49.476;8.484;2022-11-20T15:42:29;4.63;;;2.60;;
8958;SDS011;4514;49.476;8.484;2022-11-20T15:44:54;3.00;;;2.13;;
8958;SDS011;4514;49.476;8.484;2022-11-20T15:47:20;2.90;;;1.90;;
8958;SDS011;4514;49.476;8.484;2022-11-20T15:49:54;3.47;;;1.90;;
8958;SDS011;4514;49.476;8.484;2022-11-20T15:52:19;4.43;;;2.00;;
8958;SDS011;4514;49.476;8.484;2022-11-20T15:54:47;2.63;;;2.37;;
8958;SDS011;4514;49.476;8.484;2022-11-20T15:57:12;3.83;;;2.20;;
8958;SDS011;4514;49.476;8.484;2022-11-20T15:59:40;3.90;;;2.00;;
8958;SDS011;4514;49.476;8.484;2022-11-20T16:02:13;4.00;;;2.17;;
8958;SDS011;4514;49.476;8.484;2022-11-20T16:04:39;2.13;;;1.93;;
8958;SDS011;4514;49.476;8.484;2022-11-20T16:07:04;3.90;;;2.00;;
8958;SDS011;4514;49.476;8.484;2022-11-20T16:09:30;3.00;;;2.00;;
8958;SDS011;4514;49.476;8.484;2022-11-20T16:11:55;5.33;;;2.00;;
8958;SDS011;4514;49.476;8.484;2022-11-20T16:14:23;5.47;;;2.10;;
8958;SDS011;4514;49.476;8.484;2022-11-20T16:17:07;2.70;;;2.00;;
8958;SDS011;4514;49.476;8.484;2022-11-20T16:19:35;4.30;;;2.10;;
8958;SDS011;4514;49.476;8.484;2022-11-20T16:22:05;3.00;;;2.10;;
8958;SDS011;4514;49.476;8.484;2022-11-20T16:24:30;3.43;;;2.50;;
8958;SDS011;4514;49.476;8.484;2022-11-20T16:26:56;3.23;;;2.10;;
8958;SDS011;4514;49.476;8.484;2022-11-20T16:29:22;3.47;;;1.90;;
8958;SDS011;4514;49.476;8.484;2022-11-20T16:31:47;4.70;;;2.17;;
8958;SDS011;4514;49.476;8.484;2022-11-20T16:34:20;4.67;;;2.13;;
8958;SDS011;4514;49.476;8.484;2022-11-20T16:36:46;3.47;;;1.93;;
8958;SDS011;4514;49.476;8.484;2022-11-20T16:39:12;3.87;;;1.60;;
8958;SDS011;4514;49.476;8.484;2022-11-20T16:41:38;3.27;;;1.60;;
8958;SDS011;4514;49.476;8.484;2022-11-20T16:44:08;2.27;;;1.70;;